Time;durP1;ratioP1;P1;durP2;ratioP2;P2;SDS_P1;SDS_P2;PMS_P1;PMS_P2;Temp;Humidity;BMP_temperature;BMP_pressure;BME280_temperature;BME280_humidity;BME280_pressure;Samples;Min_cycle;Max_cycle;Signal;HPM_P1;HPM_P2
2022/01/30 00:00:06;;;;;;;41.97;6.78;;;7.20;99.90;;;;;;5059035;28;20408;-74
2022/01/30 00:02:31;;;;;;;28.27;5.68;;;7.20;99.90;;;;;;5087402;28;20047;-78
2022/01/30 00:04:57;;;;;;;22.23;3.97;;;7.10;99.90;;;;;;5063025;28;20485;-77
2022/01/30 00:07:23;;;;;;;19.05;3.08;;;6.90;99.90;;;;;;5065915;28;20047;-78
2022/01/30 00:09:50;;;;;;;12.23;2.72;;;6.70;99.90;;;;;;5075520;28;20056;-78
2022/01/30 00:12:18;;;;;;;10.02;2.00;;;6.50;99.90;;;;;;5075572;28;20048;-77
2022/01/30 00:14:44;;;;;;;15.55;2.55;;;6.40;99.90;;;;;;5042432;28;20551;-80
2022/01/30 00:17:19;;;;;;;17.92;3.60;;;6.40;99.90;;;;;;5058586;28;20047;-80
2022/01/30 00:19:51;;;;;;;21.23;3.50;;;6.40;99.90;;;;;;5060193;28;20159;-78
2022/01/30 00:22:43;;;;;;;22.42;3.42;;;6.20;99.90;;;;;;5062365;28;20051;-78
2022/01/30 00:25:18;;;;;;;25.25;4.95;;;6.40;99.90;;;;;;5071942;28;20043;-80
2022/01/30 00:28:00;;;;;;;37.43;5.30;;;6.40;99.90;;;;;;5070361;28;20114;-80
2022/01/30 00:30:26;;;;;;;28.75;7.13;;;6.40;99.90;;;;;;5073802;28;20052;-79
2022/01/30 00:32:52;;;;;;;42.35;6.68;;;6.40;99.90;;;;;;5093338;28;20104;-78
2022/01/30 00:35:18;;;;;;;44.58;7.80;;;6.40;99.90;;;;;;5042469;28;20047;-79
2022/01/30 00:37:48;;;;;;;37.90;6.22;;;6.20;99.90;;;;;;5075048;28;20054;-78
2022/01/30 00:40:13;;;;;;;46.25;6.93;;;6.40;99.90;;;;;;5055758;28;20396;-76
2022/01/30 00:42:39;;;;;;;42.30;7.20;;;6.40;99.90;;;;;;5075089;28;20056;-79
2022/01/30 00:45:06;;;;;;;33.78;6.28;;;6.40;99.90;;;;;;5075196;28;20048;-80
2022/01/30 00:47:31;;;;;;;31.17;5.20;;;6.50;99.90;;;;;;5073957;28;20036;-78
2022/01/30 00:49:57;;;;;;;35.38;6.00;;;6.50;99.90;;;;;;5087928;28;20047;-78
2022/01/30 00:52:23;;;;;;;37.47;6.63;;;6.60;99.90;;;;;;5081723;28;20043;-78
2022/01/30 00:54:49;;;;;;;47.60;8.25;;;6.60;99.90;;;;;;5075239;28;20610;-78
2022/01/30 00:57:14;;;;;;;42.08;7.07;;;6.60;99.90;;;;;;5058439;28;20064;-80
2022/01/30 00:59:40;;;;;;;44.05;6.43;;;6.60;99.90;;;;;;5075158;28;20414;-79
2022/01/30 01:02:06;;;;;;;36.65;6.40;;;6.60;99.90;;;;;;5041755;28;20058;-79
2022/01/30 01:04:31;;;;;;;35.17;6.63;;;6.60;99.90;;;;;;5042025;28;20048;-79
2022/01/30 01:06:57;;;;;;;36.75;6.25;;;6.70;99.90;;;;;;5041736;28;20032;-78
2022/01/30 01:09:30;;;;;;;35.50;6.00;;;6.60;99.90;;;;;;5058417;28;20045;-77
2022/01/30 01:12:27;;;;;;;32.15;5.85;;;6.70;99.90;;;;;;5075076;28;20499;-78
2022/01/30 01:23:25;;;;;;;25.42;4.07;;;6.70;99.90;;;;;;5055327;28;20048;-78
2022/01/30 01:25:51;;;;;;;32.40;5.97;;;6.70;99.90;;;;;;5059249;28;20052;-79
2022/01/30 01:28:17;;;;;;;21.25;5.50;;;6.70;99.90;;;;;;5074556;28;20067;-79
2022/01/30 01:30:42;;;;;;;25.08;6.18;;;6.70;99.90;;;;;;5074453;28;20084;-77
2022/01/30 01:33:08;;;;;;;33.20;7.10;;;6.80;99.90;;;;;;5107783;28;20044;-78
2022/01/30 01:35:34;;;;;;;48.70;7.78;;;6.70;99.90;;;;;;5074518;28;20109;-77
2022/01/30 01:38:00;;;;;;;27.27;5.45;;;6.70;99.90;;;;;;5074606;28;20051;-78
2022/01/30 01:40:25;;;;;;;28.90;5.30;;;6.70;99.90;;;;;;5060485;28;20134;-77
2022/01/30 01:42:52;;;;;;;22.50;5.22;;;6.70;99.90;;;;;;5078424;28;20048;-77
2022/01/30 01:45:23;;;;;;;41.28;6.38;;;6.80;99.90;;;;;;5061898;28;20091;-78
2022/01/30 01:47:50;;;;;;;30.05;5.75;;;6.80;99.90;;;;;;5062103;28;20051;-84
2022/01/30 01:50:37;;;;;;;36.58;6.45;;;6.90;99.90;;;;;;5095755;28;20052;-78
2022/01/30 01:53:05;;;;;;;42.03;7.47;;;6.90;99.90;;;;;;5083136;28;20072;-76
2022/01/30 01:55:31;;;;;;;33.70;6.25;;;6.80;99.90;;;;;;5061796;28;20051;-77
2022/01/30 01:57:56;;;;;;;32.20;6.63;;;7.00;99.90;;;;;;5095765;28;20101;-77
2022/01/30 02:00:22;;;;;;;29.73;6.25;;;6.90;99.90;;;;;;5045424;28;20040;-77
2022/01/30 02:02:48;;;;;;;33.03;5.40;;;6.80;99.90;;;;;;5077794;28;20049;-77
2022/01/30 02:05:13;;;;;;;21.90;4.85;;;6.80;99.90;;;;;;5078280;28;20151;-78
2022/01/30 02:10:35;;;;;;;41.78;7.20;;;6.70;99.90;;;;;;5077304;28;20097;-77
2022/01/30 02:13:33;;;;;;;43.50;7.57;;;6.70;99.90;;;;;;5076310;28;20059;-77
2022/01/30 02:26:48;;;;;;;24.83;4.10;;;5.90;99.90;;;;;;5078028;28;20386;-80
2022/01/30 02:29:14;;;;;;;31.92;6.45;;;6.00;99.90;;;;;;5077799;28;20051;-77
2022/01/30 02:31:42;;;;;;;28.17;5.45;;;6.10;99.90;;;;;;5077541;28;20118;-77
2022/01/30 02:34:08;;;;;;;28.50;6.43;;;6.10;99.90;;;;;;5094543;28;20047;-77
2022/01/30 02:36:50;;;;;;;24.92;5.10;;;6.20;99.90;;;;;;5061052;28;20044;-77
2022/01/30 02:39:17;;;;;;;37.67;5.63;;;6.30;99.90;;;;;;5077582;28;20043;-78
2022/01/30 02:41:43;;;;;;;47.40;8.10;;;6.20;99.90;;;;;;5060743;28;20044;-77
2022/01/30 02:46:43;;;;;;;30.27;5.25;;;6.20;99.90;;;;;;5076651;28;20052;-79
2022/01/30 02:49:41;;;;;;;27.17;6.10;;;6.20;99.90;;;;;;5093591;28;20154;-80
2022/01/30 02:52:01;;;;;;;31.23;6.40;;;6.30;99.90;;;;;;5062856;28;20650;-77
2022/01/30 02:54:29;;;;;;;29.30;5.85;;;6.20;99.90;;;;;;5076882;28;20396;-77
2022/01/30 02:56:55;;;;;;;36.17;7.20;;;6.30;99.90;;;;;;5076348;28;20405;-78
2022/01/30 02:59:22;;;;;;;36.75;6.72;;;6.20;99.90;;;;;;5070200;28;20481;-78
2022/01/30 03:01:48;;;;;;;36.03;6.03;;;6.30;99.90;;;;;;5075696;28;20055;-77
2022/01/30 03:04:14;;;;;;;46.58;6.78;;;6.40;99.90;;;;;;5059867;28;20120;-76
2022/01/30 03:06:40;;;;;;;31.27;6.55;;;6.40;99.90;;;;;;5076623;28;20051;-80
2022/01/30 03:09:08;;;;;;;38.55;6.15;;;6.50;99.90;;;;;;5060207;28;20063;-77
2022/01/30 03:11:35;;;;;;;31.90;6.95;;;6.60;99.90;;;;;;5076840;28;20044;-80
2022/01/30 03:14:01;;;;;;;54.80;8.75;;;6.60;99.90;;;;;;5076267;28;20047;-77
2022/01/30 03:16:27;;;;;;;39.30;6.72;;;6.60;99.90;;;;;;5076922;28;20047;-79
2022/01/30 03:18:53;;;;;;;50.95;7.57;;;6.60;99.90;;;;;;5043835;28;20044;-78
2022/01/30 03:21:19;;;;;;;36.97;6.50;;;6.70;99.90;;;;;;5059844;28;20061;-77
2022/01/30 03:23:45;;;;;;;28.50;5.75;;;6.70;99.90;;;;;;5060274;28;20374;-76
2022/01/30 03:26:13;;;;;;;38.55;6.65;;;6.70;99.90;;;;;;5060282;28;20080;-77
2022/01/30 03:28:41;;;;;;;40.67;6.35;;;6.70;99.90;;;;;;5076804;28;20044;-77
2022/01/30 03:31:09;;;;;;;42.58;7.45;;;6.70;99.90;;;;;;5043308;28;20089;-77
2022/01/30 03:33:35;;;;;;;54.88;9.68;;;6.70;99.90;;;;;;5076729;28;20048;-77
2022/01/30 03:36:01;;;;;;;46.58;6.78;;;6.60;99.90;;;;;;5076263;28;20054;-76
2022/01/30 03:38:27;;;;;;;45.50;8.95;;;6.60;99.90;;;;;;5076511;28;20134;-77
2022/01/30 03:40:53;;;;;;;44.00;8.52;;;6.60;99.90;;;;;;5056077;28;20049;-76
2022/01/30 03:43:19;;;;;;;44.25;7.15;;;6.70;99.90;;;;;;5089653;28;20040;-76
2022/01/30 03:45:45;;;;;;;36.45;6.68;;;6.70;99.90;;;;;;5085903;28;20139;-77
2022/01/30 03:48:14;;;;;;;48.42;8.38;;;6.80;99.90;;;;;;5076051;28;20091;-77
2022/01/30 03:50:44;;;;;;;40.42;6.53;;;6.70;99.90;;;;;;5059516;28;20051;-77
2022/01/30 03:53:10;;;;;;;59.47;7.47;;;6.70;99.90;;;;;;5058675;28;20048;-77
2022/01/30 03:55:38;;;;;;;38.92;6.57;;;6.80;99.90;;;;;;5059266;28;20044;-76
2022/01/30 03:58:05;;;;;;;38.15;6.28;;;6.70;99.90;;;;;;5094077;28;20060;-81
2022/01/30 04:00:31;;;;;;;41.25;7.88;;;6.80;99.90;;;;;;5059358;28;20137;-78
2022/01/30 04:02:57;;;;;;;44.97;7.60;;;6.80;99.90;;;;;;5058265;28;20075;-79
2022/01/30 04:05:22;;;;;;;47.38;7.75;;;6.80;99.90;;;;;;5074664;28;20047;-77
2022/01/30 04:07:48;;;;;;;35.22;6.13;;;6.80;99.90;;;;;;5075307;28;20066;-79
2022/01/30 04:10:15;;;;;;;46.22;9.52;;;6.80;99.90;;;;;;5042386;28;20052;-77
2022/01/30 04:12:41;;;;;;;47.97;7.07;;;6.80;99.90;;;;;;5075507;28;20040;-77
2022/01/30 04:15:08;;;;;;;41.35;6.80;;;6.80;99.90;;;;;;5059240;28;20084;-78
2022/01/30 04:17:34;;;;;;;30.65;5.20;;;6.80;99.90;;;;;;5059100;28;20093;-77
2022/01/30 04:20:00;;;;;;;50.35;7.95;;;6.80;99.90;;;;;;5059216;28;20044;-77
2022/01/30 04:22:28;;;;;;;35.25;7.07;;;6.80;99.90;;;;;;5022389;28;20048;-77
2022/01/30 04:24:54;;;;;;;37.83;7.07;;;6.80;99.90;;;;;;5038286;28;20058;-77
2022/01/30 04:27:22;;;;;;;37.92;7.05;;;6.80;99.90;;;;;;5088570;28;20113;-77
2022/01/30 04:29:48;;;;;;;35.75;6.75;;;6.70;99.90;;;;;;5075806;28;20047;-77
2022/01/30 04:32:15;;;;;;;51.45;8.50;;;6.70;99.90;;;;;;5058439;28;20118;-80
2022/01/30 04:34:43;;;;;;;52.60;8.98;;;6.70;99.90;;;;;;5042223;28;20056;-77
2022/01/30 04:37:20;;;;;;;53.45;7.93;;;6.60;99.90;;;;;;5058583;28;20044;-83
2022/01/30 04:40:21;;;;;;;52.97;8.73;;;6.70;99.90;;;;;;5060522;28;20446;-77
2022/01/30 05:04:44;;;;;;;48.72;6.82;;;6.60;99.90;;;;;;5071862;28;20569;-79
2022/01/30 05:09:36;;;;;;;31.92;6.30;;;6.50;99.90;;;;;;5093050;28;20088;-76
2022/01/30 05:12:02;;;;;;;30.98;5.43;;;6.50;99.90;;;;;;5074986;28;20052;-77
2022/01/30 05:14:33;;;;;;;29.33;6.15;;;6.50;99.90;;;;;;5081680;28;20079;-77
2022/01/30 05:16:59;;;;;;;41.35;7.30;;;6.50;99.90;;;;;;5063212;28;20497;-77
2022/01/30 05:19:29;;;;;;;31.65;6.05;;;6.40;99.90;;;;;;5062341;28;20048;-79
2022/01/30 05:21:55;;;;;;;31.45;7.22;;;6.50;99.90;;;;;;5058865;28;20554;-76
2022/01/30 05:24:21;;;;;;;45.28;8.70;;;6.50;99.90;;;;;;5092482;28;20048;-76
2022/01/30 05:26:47;;;;;;;36.53;6.45;;;6.50;99.90;;;;;;5058933;28;20040;-77
2022/01/30 05:29:14;;;;;;;28.85;5.68;;;6.60;99.90;;;;;;5092012;28;20380;-77
2022/01/30 05:31:41;;;;;;;37.70;7.38;;;6.60;99.90;;;;;;5075651;28;20477;-77
2022/01/30 05:34:08;;;;;;;37.55;6.22;;;6.60;99.90;;;;;;5041588;28;20052;-76
2022/01/30 05:36:35;;;;;;;37.10;8.07;;;6.60;99.90;;;;;;5070826;28;20055;-77
2022/01/30 05:39:02;;;;;;;42.88;8.45;;;6.60;99.90;;;;;;5061701;28;20040;-77
2022/01/30 05:41:27;;;;;;;49.65;7.88;;;6.50;99.90;;;;;;5078272;28;20047;-77
2022/01/30 05:43:58;;;;;;;22.50;5.18;;;6.50;99.90;;;;;;5061338;28;20032;-76
2022/01/30 05:47:09;;;;;;;43.75;7.70;;;6.50;99.90;;;;;;5078398;28;20047;-75
2022/01/30 05:49:14;;;;;;;28.83;6.05;;;6.50;99.90;;;;;;5073233;28;20048;-76
2022/01/30 05:51:40;;;;;;;43.88;7.95;;;6.60;99.90;;;;;;5077927;28;20044;-77
2022/01/30 05:54:06;;;;;;;47.03;8.55;;;6.50;99.90;;;;;;5044192;28;20046;-76
2022/01/30 05:56:33;;;;;;;30.27;6.35;;;6.50;99.90;;;;;;5078269;28;20079;-76
2022/01/30 05:58:59;;;;;;;32.33;6.20;;;6.60;99.90;;;;;;5072441;28;20143;-80
2022/01/30 06:01:25;;;;;;;54.33;8.18;;;6.50;99.90;;;;;;5074483;28;20051;-77
2022/01/30 06:03:51;;;;;;;53.47;9.65;;;6.60;99.90;;;;;;5075003;28;20119;-76
2022/01/30 06:06:17;;;;;;;59.50;9.75;;;6.60;99.90;;;;;;5075010;28;20048;-77
2022/01/30 06:08:57;;;;;;;36.80;6.18;;;6.60;99.90;;;;;;5058194;28;20080;-77
2022/01/30 06:11:23;;;;;;;35.70;6.38;;;6.60;99.90;;;;;;5057750;28;20090;-77
2022/01/30 06:13:49;;;;;;;32.28;6.47;;;6.60;99.90;;;;;;5041445;28;20250;-80
2022/01/30 06:16:14;;;;;;;33.50;5.93;;;6.60;99.90;;;;;;5074237;28;20063;-76
2022/01/30 06:18:40;;;;;;;49.03;9.13;;;6.70;99.90;;;;;;5057758;28;20080;-77
2022/01/30 06:21:06;;;;;;;38.53;7.18;;;6.70;99.90;;;;;;5058308;28;20045;-76
2022/01/30 06:23:32;;;;;;;31.42;6.28;;;6.70;99.90;;;;;;5074289;28;20449;-77
2022/01/30 06:25:58;;;;;;;40.38;7.90;;;6.70;99.90;;;;;;5057028;28;20044;-78
2022/01/30 06:28:23;;;;;;;39.60;6.75;;;6.70;99.90;;;;;;5093456;28;20036;-77
2022/01/30 06:30:49;;;;;;;36.00;6.43;;;6.70;99.90;;;;;;5057885;28;20504;-77
2022/01/30 06:33:15;;;;;;;50.13;9.05;;;6.60;99.90;;;;;;5074479;28;20051;-78
2022/01/30 06:35:41;;;;;;;37.72;7.43;;;6.60;99.90;;;;;;5057528;28;20058;-77
2022/01/30 06:38:07;;;;;;;31.73;7.28;;;6.50;99.90;;;;;;5057955;28;20044;-77
2022/01/30 06:40:33;;;;;;;40.83;7.93;;;6.50;99.90;;;;;;5074080;28;20048;-77
2022/01/30 06:42:58;;;;;;;55.03;10.32;;;6.50;99.90;;;;;;5056694;28;20083;-77
2022/01/30 06:45:24;;;;;;;33.30;7.22;;;6.60;99.90;;;;;;5045622;28;20145;-79
2022/01/30 06:47:51;;;;;;;35.67;5.93;;;6.60;99.90;;;;;;5038266;28;20350;-77
2022/01/30 06:50:18;;;;;;;40.08;7.55;;;6.60;99.90;;;;;;5072907;28;20044;-77
2022/01/30 06:52:44;;;;;;;38.40;8.68;;;6.60;99.90;;;;;;5067740;28;20047;-75
2022/01/30 06:55:10;;;;;;;36.03;7.22;;;6.50;99.90;;;;;;5068229;28;20056;-75
2022/01/30 06:57:42;;;;;;;42.28;8.05;;;6.40;99.90;;;;;;5040056;28;20115;-79
2022/01/30 07:00:08;;;;;;;40.35;7.63;;;6.50;99.90;;;;;;5073930;28;20135;-76
2022/01/30 07:02:34;;;;;;;47.58;8.30;;;6.40;99.90;;;;;;5072923;28;20051;-77
2022/01/30 07:05:00;;;;;;;36.13;6.00;;;6.50;99.90;;;;;;5065153;28;20045;-76
2022/01/30 07:07:25;;;;;;;52.83;9.35;;;6.50;99.90;;;;;;5069682;28;20046;-78
2022/01/30 07:09:51;;;;;;;38.42;8.05;;;6.50;99.90;;;;;;5069877;28;20076;-76
2022/01/30 07:12:17;;;;;;;46.65;9.38;;;6.50;99.90;;;;;;5072534;28;20053;-77
2022/01/30 07:14:43;;;;;;;53.97;9.23;;;6.60;99.90;;;;;;5036692;28;20048;-78
2022/01/30 07:17:08;;;;;;;51.35;10.35;;;6.50;99.90;;;;;;5070953;28;20052;-81
2022/01/30 07:19:34;;;;;;;62.03;9.95;;;6.50;99.90;;;;;;5053288;28;20086;-76
2022/01/30 07:22:00;;;;;;;56.90;11.10;;;6.50;99.90;;;;;;5058921;28;20042;-77
2022/01/30 07:24:26;;;;;;;48.78;10.00;;;6.40;99.90;;;;;;5040198;28;20477;-77
2022/01/30 07:26:52;;;;;;;42.75;8.18;;;6.40;99.90;;;;;;5072992;28;20044;-77
2022/01/30 07:29:18;;;;;;;38.83;8.80;;;6.40;99.90;;;;;;5039090;28;20048;-77
2022/01/30 07:31:43;;;;;;;40.15;9.27;;;6.40;99.90;;;;;;5072897;28;20048;-78
2022/01/30 07:34:09;;;;;;;53.95;10.57;;;6.30;99.90;;;;;;5071691;28;20064;-79
2022/01/30 07:36:36;;;;;;;58.38;11.30;;;6.30;99.90;;;;;;5054385;28;21598;-79
2022/01/30 07:39:06;;;;;;;53.72;9.80;;;6.30;99.90;;;;;;5071755;28;20079;-79
2022/01/30 07:41:32;;;;;;;51.60;8.85;;;6.30;99.90;;;;;;5072583;28;20044;-76
2022/01/30 07:44:00;;;;;;;49.72;9.52;;;6.30;99.90;;;;;;5052795;28;20044;-80
2022/01/30 07:46:26;;;;;;;50.80;8.85;;;6.30;99.90;;;;;;5072454;28;20395;-76
2022/01/30 07:48:51;;;;;;;48.60;8.63;;;6.30;99.90;;;;;;5064413;28;20041;-76
2022/01/30 07:51:17;;;;;;;48.25;8.40;;;6.30;99.90;;;;;;5052149;28;20041;-78
2022/01/30 07:53:43;;;;;;;47.00;8.88;;;6.20;99.90;;;;;;5059869;28;20028;-77
2022/01/30 07:56:08;;;;;;;39.40;7.50;;;6.10;99.90;;;;;;5056429;28;20055;-77
2022/01/30 07:58:34;;;;;;;39.45;6.65;;;6.00;99.90;;;;;;5072213;28;20062;-77
2022/01/30 08:01:00;;;;;;;41.88;7.38;;;6.00;99.90;;;;;;5072656;28;20139;-77
2022/01/30 08:03:25;;;;;;;43.85;8.25;;;6.00;99.90;;;;;;5072691;28;20045;-76
2022/01/30 08:05:51;;;;;;;45.83;7.95;;;6.00;99.90;;;;;;5072558;28;20118;-76
2022/01/30 08:08:17;;;;;;;37.38;6.93;;;6.00;99.90;;;;;;5073613;28;20119;-76
2022/01/30 08:10:42;;;;;;;31.52;6.90;;;6.10;99.90;;;;;;5071766;28;20052;-77
2022/01/30 08:13:08;;;;;;;38.05;6.88;;;6.10;99.90;;;;;;5055588;28;20131;-75
2022/01/30 08:15:34;;;;;;;31.13;6.93;;;6.10;99.90;;;;;;5039066;28;20046;-79
2022/01/30 08:18:00;;;;;;;42.63;7.03;;;6.10;99.90;;;;;;5071692;28;20048;-79
2022/01/30 08:20:27;;;;;;;40.05;8.52;;;6.10;99.90;;;;;;5054899;28;20090;-77
2022/01/30 08:22:54;;;;;;;44.67;7.53;;;6.10;99.90;;;;;;5054759;28;20504;-77
2022/01/30 08:25:23;;;;;;;48.70;8.77;;;6.10;99.90;;;;;;5072162;28;20040;-78
2022/01/30 08:27:50;;;;;;;38.63;8.70;;;6.10;99.90;;;;;;5038087;28;20489;-79
2022/01/30 08:30:16;;;;;;;57.92;10.25;;;6.20;99.90;;;;;;5071596;28;20047;-77
2022/01/30 08:32:49;;;;;;;50.38;9.40;;;6.10;99.90;;;;;;5071755;28;20467;-77
2022/01/30 08:35:15;;;;;;;52.00;9.45;;;6.20;99.90;;;;;;5071962;28;20474;-77
2022/01/30 08:37:41;;;;;;;51.15;11.15;;;6.20;99.90;;;;;;5055443;28;20048;-76
2022/01/30 08:40:13;;;;;;;59.47;9.77;;;6.20;99.90;;;;;;5055289;28;20055;-76
2022/01/30 08:42:39;;;;;;;60.58;10.50;;;6.20;99.90;;;;;;5072217;28;20195;-76
2022/01/30 08:45:08;;;;;;;56.33;10.25;;;6.30;99.90;;;;;;5073187;28;20132;-76
2022/01/30 08:47:34;;;;;;;56.85;10.10;;;6.30;99.90;;;;;;5071992;28;20500;-77
2022/01/30 08:50:00;;;;;;;45.92;8.18;;;6.30;99.90;;;;;;5051131;28;20120;-76
2022/01/30 08:52:26;;;;;;;54.85;8.73;;;6.40;99.90;;;;;;5051738;28;20132;-76
2022/01/30 08:54:53;;;;;;;50.85;8.10;;;6.50;99.90;;;;;;5051860;28;20037;-76
2022/01/30 08:57:19;;;;;;;57.78;9.43;;;6.40;99.90;;;;;;5054523;28;20080;-76
2022/01/30 08:59:45;;;;;;;45.20;8.27;;;6.50;99.90;;;;;;5072121;28;20143;-76
2022/01/30 09:02:12;;;;;;;51.03;9.80;;;6.40;99.90;;;;;;5081054;28;20032;-77
2022/01/30 09:04:37;;;;;;;;;;;6.40;99.90;;;;;;5059224;28;20113;-76
2022/01/30 09:07:04;;;;;;;;;;;6.50;99.90;;;;;;5042306;28;19920;-77
2022/01/30 09:09:32;;;;;;;;;;;6.60;99.90;;;;;;5075732;28;20330;-79
2022/01/30 09:11:58;;;;;;;;;;;6.70;99.90;;;;;;5058355;28;19920;-76
2022/01/30 09:14:25;;;;;;;;;;;6.70;99.90;;;;;;5075291;28;19920;-76
2022/01/30 09:16:50;;;;;;;;;;;6.70;99.90;;;;;;5075449;28;19970;-76
2022/01/30 09:19:16;;;;;;;;;;;6.60;99.90;;;;;;5075735;28;19963;-76
2022/01/30 09:21:41;;;;;;;;;;;6.50;99.90;;;;;;5058867;28;20408;-77
2022/01/30 09:24:07;;;;;;;;;;;6.50;99.90;;;;;;5057378;28;19920;-77
2022/01/30 09:26:32;;;;;;;;;;;6.40;99.90;;;;;;5088806;28;19920;-78
2022/01/30 09:28:58;;;;;;;;;;;6.50;99.90;;;;;;5073141;28;19928;-76
2022/01/30 09:31:24;;;;;;;;;;;6.40;99.90;;;;;;5075318;28;20031;-75
2022/01/30 09:33:49;;;;;;;;;;;6.50;99.90;;;;;;5092270;28;19924;-80
2022/01/30 09:36:15;;;;;;;;;;;6.50;99.90;;;;;;5089458;28;19943;-78
2022/01/30 09:38:41;;;;;;;;;;;6.50;99.90;;;;;;5074839;28;19920;-80
2022/01/30 09:41:08;;;;;;;;;;;6.60;99.90;;;;;;5103530;28;20002;-79
2022/01/30 09:43:34;;;;;;;;;;;6.70;99.90;;;;;;5075362;28;19943;-77
2022/01/30 09:46:00;;;;;;;;;;;6.70;99.90;;;;;;5058141;28;19924;-77
2022/01/30 09:48:25;;;;;;;;;;;6.80;99.90;;;;;;5075170;28;19973;-77
2022/01/30 09:50:51;;;;;;;;;;;6.80;99.90;;;;;;5092968;28;19924;-79
2022/01/30 09:53:18;;;;;;;;;;;6.90;99.90;;;;;;5075207;28;19927;-76
2022/01/30 09:55:43;;;;;;;;;;;6.80;99.90;;;;;;5093184;28;19920;-76
2022/01/30 09:58:09;;;;;;;;;;;6.70;99.90;;;;;;5057904;28;19973;-78
2022/01/30 10:00:35;;;;;;;;;;;6.60;99.90;;;;;;5070609;28;19920;-78
2022/01/30 10:03:00;;;;;;;;;;;6.70;99.90;;;;;;5078433;28;19920;-77
2022/01/30 10:05:32;;;;;;;;;;;6.80;99.90;;;;;;5095483;28;19962;-77
2022/01/30 10:07:58;;;;;;;;;;;6.80;99.90;;;;;;5061712;28;20273;-77
2022/01/30 10:10:27;;;;;;;;;;;6.70;99.90;;;;;;5078284;28;19924;-78
2022/01/30 10:13:05;;;;;;;;;;;6.60;99.90;;;;;;5077041;28;19927;-77
2022/01/30 10:15:46;;;;;;;;;;;6.60;99.90;;;;;;5077457;28;20241;-78
2022/01/30 10:18:12;;;;;;;;;;;6.70;99.90;;;;;;5077527;28;19931;-78
2022/01/30 10:20:38;;;;;;;;;;;6.70;99.90;;;;;;5078480;28;20003;-79
2022/01/30 10:23:08;;;;;;;;;;;6.80;99.90;;;;;;5112122;28;19920;-79
2022/01/30 10:25:37;;;;;;;;;;;6.80;99.90;;;;;;5062097;28;19979;-77
2022/01/30 10:28:10;;;;;;;;;;;6.90;99.90;;;;;;5077443;28;19920;-79
2022/01/30 10:30:47;;;;;;;;;;;6.90;99.90;;;;;;5111113;28;19943;-76
2022/01/30 10:33:14;;;;;;;;;;;6.90;99.90;;;;;;5077519;28;19920;-78
2022/01/30 10:35:49;;;;;;;;;;;6.90;99.90;;;;;;5073712;28;19949;-75
2022/01/30 10:38:21;;;;;;;;;;;7.00;99.90;;;;;;5077233;28;20280;-76
2022/01/30 10:40:54;;;;;;;;;;;7.00;99.90;;;;;;5076703;28;19924;-76
2022/01/30 10:43:20;;;;;;;;;;;7.00;99.90;;;;;;5077287;28;20009;-80
2022/01/30 10:45:45;;;;;;;;;;;7.10;99.90;;;;;;5077506;28;19920;-79
2022/01/30 10:48:13;;;;;;;;;;;7.10;99.90;;;;;;5061049;28;19927;-79
2022/01/30 10:50:40;;;;;;;;;;;7.10;99.90;;;;;;5077878;28;19929;-80
2022/01/30 10:53:05;;;;;;;;;;;7.30;99.90;;;;;;5109968;28;19920;-78
2022/01/30 10:55:34;;;;;;;;;;;7.40;99.90;;;;;;5111659;28;19920;-79
2022/01/30 10:58:03;;;;;;;;;;;7.50;99.90;;;;;;5077476;28;19931;-79
2022/01/30 11:00:48;;;;;;;;;;;7.40;99.90;;;;;;5111243;28;20404;-78
2022/01/30 11:03:33;;;;;;;;;;;7.30;99.90;;;;;;5077693;28;19971;-78
2022/01/30 11:05:59;;;;;;;;;;;7.30;99.90;;;;;;5094405;28;19927;-77
2022/01/30 11:08:26;;;;;;;;;;;7.30;99.90;;;;;;5077445;28;20304;-78
2022/01/30 11:10:59;;;;;;;;;;;7.40;99.90;;;;;;5060685;28;19920;-76
2022/01/30 11:13:32;;;;;;;;;;;7.60;99.90;;;;;;5060926;28;20280;-76
2022/01/30 11:16:55;;;;;;;;;;;7.70;99.90;;;;;;5060722;28;20284;-76
2022/01/30 11:18:45;;;;;;;;;;;7.80;99.90;;;;;;5110513;28;19924;-79
2022/01/30 11:21:10;;;;;;;;;;;7.80;99.90;;;;;;5059747;28;20448;-78
2022/01/30 11:23:37;;;;;;;;;;;7.80;99.90;;;;;;5077106;28;20014;-78
2022/01/30 11:26:03;;;;;;;;;;;7.90;99.90;;;;;;5077152;28;19920;-76
2022/01/30 11:28:29;;;;;;;;;;;8.00;99.90;;;;;;5077168;28;20623;-78
2022/01/30 11:30:55;;;;;;;;;;;8.20;99.90;;;;;;5077178;28;19927;-87
2022/01/30 11:33:21;;;;;;;;;;;8.30;99.90;;;;;;5076880;28;19920;-78
2022/01/30 11:35:47;;;;;;;;;;;8.20;99.90;;;;;;5059937;28;19920;-77
2022/01/30 11:38:13;;;;;;;;;;;8.20;99.90;;;;;;5109625;28;19977;-77
2022/01/30 11:40:38;;;;;;;;;;;8.30;99.90;;;;;;5059593;28;19930;-79
2022/01/30 11:43:08;;;;;;;;;;;8.20;99.90;;;;;;5091903;28;19923;-79
2022/01/30 11:45:34;;;;;;;;;;;8.20;99.90;;;;;;5090095;28;19993;-79
2022/01/30 11:48:06;;;;;;;;;;;8.10;99.90;;;;;;5075122;28;19924;-80
2022/01/30 11:50:33;;;;;;;;;;;8.10;99.90;;;;;;5058346;28;19919;-78
2022/01/30 11:53:01;;;;;;;;;;;7.90;99.90;;;;;;5055933;28;19920;-82
2022/01/30 11:55:49;;;;;;;;;;;7.70;99.90;;;;;;5058375;28;19968;-80
2022/01/30 11:58:30;;;;;;;;;;;7.80;99.90;;;;;;5071651;28;20014;-79
2022/01/30 12:00:56;;;;;;;;;;;7.60;99.90;;;;;;5073567;28;19920;-78
2022/01/30 12:03:25;;;;;;;;;;;7.70;99.90;;;;;;5076025;28;19919;-77
2022/01/30 12:05:51;;;;;;;;;;;7.90;99.90;;;;;;5075075;28;20347;-79
2022/01/30 12:08:35;;;;;;;;;;;8.20;99.90;;;;;;5075266;28;19967;-78
2022/01/30 12:11:01;;;;;;;;;;;8.40;99.90;;;;;;5074382;28;20268;-77
2022/01/30 12:13:56;;;;;;;;;;;8.60;99.90;;;;;;5094073;28;19924;-78
2022/01/30 12:16:40;;;;;;;;;;;8.40;99.90;;;;;;5056405;28;19919;-77
2022/01/30 12:19:06;;;;;;;;;;;8.20;99.90;;;;;;5105490;28;20331;-78
2022/01/30 12:21:31;;;;;;;;;;;8.10;99.90;;;;;;5091932;28;19920;-76
2022/01/30 12:23:57;;;;;;;;;;;8.10;99.90;;;;;;5057936;28;20272;-78
2022/01/30 12:26:22;;;;;;;;;;;8.30;99.90;;;;;;5057820;28;20014;-77
2022/01/30 12:28:49;;;;;;;;;;;8.40;99.90;;;;;;5093648;28;19920;-77
2022/01/30 12:31:24;;;;;;;;;;;8.30;99.90;;;;;;5075687;28;19970;-77
2022/01/30 12:34:02;;;;;;;;;;;8.10;99.90;;;;;;5059475;28;19974;-77
2022/01/30 12:36:30;;;;;;;;;;;8.10;99.90;;;;;;5109236;28;19969;-77
2022/01/30 12:39:01;;;;;;;;;;;8.20;99.90;;;;;;5075550;28;20425;-77
2022/01/30 12:41:28;;;;;;;;;;;8.20;99.90;;;;;;5074835;28;19924;-77
2022/01/30 12:43:55;;;;;;;;;;;8.20;99.90;;;;;;5108769;28;19930;-78
2022/01/30 12:46:22;;;;;;;;;;;8.10;99.90;;;;;;5074954;28;19970;-77
2022/01/30 12:49:02;;;;;;;;;;;7.90;99.90;;;;;;5075230;28;20357;-77
2022/01/30 12:51:28;;;;;;;;;;;7.70;99.90;;;;;;5074866;28;19924;-75
2022/01/30 12:53:55;;;;;;;;;;;7.60;99.90;;;;;;5075633;28;19927;-75
2022/01/30 12:56:21;;;;;;;;;;;7.70;99.90;;;;;;5058970;28;19920;-75
2022/01/30 12:58:48;;;;;;;;;;;7.50;99.90;;;;;;5075548;28;19956;-75
2022/01/30 13:01:14;;;;;;;;;;;7.60;99.90;;;;;;5092578;28;19971;-78
2022/01/30 13:03:40;;;;;;;;;;;7.90;99.90;;;;;;5075323;28;20364;-78
2022/01/30 13:06:06;;;;;;;;;;;8.30;99.90;;;;;;5075028;28;19920;-82
2022/01/30 13:08:44;;;;;;;;;;;8.60;99.90;;;;;;5075605;28;19958;-77
2022/01/30 13:11:14;;;;;;;;;;;9.00;99.90;;;;;;5089393;28;19920;-77
2022/01/30 13:13:55;;;;;;;;;;;8.90;99.90;;;;;;5109170;28;19974;-78
2022/01/30 13:16:25;;;;;;;;;;;8.70;99.90;;;;;;5075238;28;19920;-77
2022/01/30 13:18:50;;;;;;;;;;;8.40;99.90;;;;;;5055078;28;19973;-77
2022/01/30 13:21:23;;;;;;;;;;;8.20;99.90;;;;;;5075473;28;20002;-76
2022/01/30 13:23:49;;;;;;;;;;;8.10;99.90;;;;;;5075510;28;20006;-78
2022/01/30 13:26:38;;;;;;;;;;;7.90;99.90;;;;;;5058767;28;20379;-77
2022/01/30 13:29:14;;;;;;;;;;;7.80;99.90;;;;;;5074693;28;20019;-78
2022/01/30 13:31:41;;;;;;;;;;;7.70;99.90;;;;;;5108749;28;20372;-79
2022/01/30 13:34:06;;;;;;;;;;;7.80;99.90;;;;;;5075235;28;19920;-77
2022/01/30 13:36:32;;;;;;;;;;;7.70;99.90;;;;;;5077414;28;19920;-78
2022/01/30 13:38:58;;;;;;;;;;;7.80;99.90;;;;;;5058757;28;20289;-80
2022/01/30 13:41:28;;;;;;;;;;;8.00;99.90;;;;;;5095022;28;19920;-78
2022/01/30 13:44:00;;;;;;;;;;;8.10;99.90;;;;;;5061418;28;19969;-79
2022/01/30 13:49:10;;;;;;;;;;;8.20;99.90;;;;;;5077670;28;20320;-86
2022/01/30 13:51:36;;;;;;;;;;;8.10;99.90;;;;;;5095706;28;20011;-77
2022/01/30 13:54:09;;;;;;;;;;;8.10;99.90;;;;;;5058790;28;19920;-78
2022/01/30 13:56:35;;;;;;;;;;;7.90;99.90;;;;;;5065669;28;19950;-77
2022/01/30 13:59:00;;;;;;;;;;;7.80;99.90;;;;;;5074999;28;19920;-77
2022/01/30 14:01:30;;;;;;;;;;;7.70;99.90;;;;;;5074971;28;19920;-77
2022/01/30 14:04:21;;;;;;;;;;;7.70;99.90;;;;;;5078679;28;19921;-78
2022/01/30 14:06:49;;;;;;;;;;;7.70;99.90;;;;;;5035698;28;20276;-77
2022/01/30 14:09:19;;;;;;;;;;;7.60;99.90;;;;;;5068623;28;19921;-78
2022/01/30 14:11:51;;;;;;;;;;;7.60;99.90;;;;;;5075131;28;19970;-78
2022/01/30 14:14:20;;;;;;;;;;;7.60;99.90;;;;;;5068231;28;19920;-83
2022/01/30 14:16:49;;;;;;;;;;;7.70;99.90;;;;;;5075045;28;20380;-78
2022/01/30 14:19:40;;;;;;;;;;;7.70;99.90;;;;;;5074900;28;19920;-81